Time;durP1;ratioP1;P1;durP2;ratioP2;P2;SDS_P1;SDS_P2;PMS_P1;PMS_P2;Temp;Humidity;BMP_temperature;BMP_pressure;BME280_temperature;BME280_humidity;BME280_pressure;Samples;Min_cycle;Max_cycle;Signal;HPM_P1;HPM_P2
2022/09/23 00:00:18;;;;;;;;;;;;;;;16.78;100.00;99199.19;5045525;28;19952;-45
2022/09/23 00:02:51;;;;;;;;;;;;;;;16.24;100.00;99214.22;5044946;28;19963;-44
2022/09/23 00:05:16;;;;;;;;;;;;;;;16.54;100.00;99205.72;5044417;28;19920;-45
2022/09/23 00:07:41;;;;;;;;;;;;;;;16.29;100.00;99207.84;5027012;28;19920;-45
2022/09/23 00:10:07;;;;;;;;;;;;;;;16.04;100.00;99216.06;5045163;28;19927;-44
2022/09/23 00:12:32;;;;;;;;;;;;;;;15.89;100.00;99220.25;5043231;28;19920;-45
2022/09/23 00:14:58;;;;;;;;;;;;;;;15.96;100.00;99209.56;5027185;28;20356;-44
2022/09/23 00:17:23;;;;;;;;;;;;;;;15.69;100.00;99212.59;5043316;28;20797;-44
2022/09/23 00:19:48;;;;;;;;;;;;;;;15.96;100.00;99212.16;5044971;28;19920;-45
2022/09/23 00:22:14;;;;;;;;;;;;;;;15.45;100.00;99205.09;5043637;28;19917;-44
2022/09/23 00:24:39;;;;;;;;;;;;;;;15.95;100.00;99207.91;5044585;28;19921;-44
2022/09/23 00:27:04;;;;;;;;;;;;;;;15.57;100.00;99205.41;5046629;28;20011;-45
2022/09/23 00:29:30;;;;;;;;;;;;;;;15.72;100.00;99211.66;5045461;28;19951;-44
2022/09/23 00:31:55;;;;;;;;;;;;;;;15.43;100.00;99212.13;5044585;28;19932;-44
2022/09/23 00:34:20;;;;;;;;;;;;;;;15.85;100.00;99197.13;5044745;28;19921;-44
2022/09/23 00:36:46;;;;;;;;;;;;;;;15.87;100.00;99200.47;5044875;28;19920;-45
2022/09/23 00:39:11;;;;;;;;;;;;;;;15.44;100.00;99200.84;5046444;28;19924;-45
2022/09/23 00:41:36;;;;;;;;;;;;;;;15.02;100.00;99204.56;5043859;28;19916;-45
2022/09/23 00:44:22;;;;;;;;;;;;;;;15.46;100.00;99200.75;5044551;28;19959;-44
2022/09/23 00:46:47;;;;;;;;;;;;;;;15.24;100.00;99216.53;5044787;28;20003;-45
2022/09/23 00:49:14;;;;;;;;;;;;;;;15.24;100.00;99201.78;5026896;28;19920;-44
2022/09/23 00:51:40;;;;;;;;;;;;;;;15.70;100.00;99193.50;5024799;28;19917;-44
2022/09/23 00:54:05;;;;;;;;;;;;;;;15.43;100.00;99191.34;5025484;28;20400;-44
2022/09/23 00:56:32;;;;;;;;;;;;;;;15.38;100.00;99182.97;5044013;28;19930;-45
2022/09/23 00:58:57;;;;;;;;;;;;;;;14.62;100.00;99197.81;5027165;28;19916;-44
2022/09/23 01:01:23;;;;;;;;;;;;;;;15.31;100.00;99189.38;5044323;28;20647;-44
2022/09/23 01:03:48;;;;;;;;;;;;;;;15.60;100.00;99184.50;5044398;28;19966;-43
2022/09/23 01:06:13;;;;;;;;;;;;;;;15.33;100.00;99179.75;5026058;28;19917;-44
2022/09/23 01:08:39;;;;;;;;;;;;;;;15.13;100.00;99185.06;5018967;28;19916;-44
2022/09/23 01:11:19;;;;;;;;;;;;;;;15.59;100.00;99180.22;5044347;28;19916;-44
2022/09/23 01:13:56;;;;;;;;;;;;;;;15.19;100.00;99183.03;5041875;28;19917;-44
2022/09/23 01:16:22;;;;;;;;;;;;;;;14.96;100.00;99186.72;5045135;28;19921;-43
2022/09/23 01:19:00;;;;;;;;;;;;;;;14.59;100.00;99184.97;5045021;28;20018;-43
2022/09/23 01:21:30;;;;;;;;;;;;;;;15.00;100.00;99174.41;5026794;28;20062;-43
2022/09/23 01:24:04;;;;;;;;;;;;;;;14.70;100.00;99174.94;5024707;28;19924;-44
2022/09/23 01:26:36;;;;;;;;;;;;;;;14.75;100.00;99174.72;5044333;28;20439;-43
2022/09/23 01:29:01;;;;;;;;;;;;;;;14.93;100.00;99170.44;5043451;28;20377;-43
2022/09/23 01:31:26;;;;;;;;;;;;;;;14.75;100.00;99164.34;5042865;28;19921;-43
2022/09/23 01:33:54;;;;;;;;;;;;;;;14.43;100.00;99167.47;5044518;28;19925;-44
2022/09/23 01:36:19;;;;;;;;;;;;;;;14.98;100.00;99161.53;5024803;28;19954;-44
2022/09/23 01:38:44;;;;;;;;;;;;;;;14.75;100.00;99161.78;5044691;28;20606;-43
2022/09/23 01:41:36;;;;;;;;;;;;;;;14.85;100.00;99155.25;5043985;28;19959;-44
2022/09/23 01:44:03;;;;;;;;;;;;;;;15.16;100.00;99148.59;5041750;28;20031;-44
2022/09/23 01:46:31;;;;;;;;;;;;;;;14.63;100.00;99153.66;5026296;28;20275;-44
2022/09/23 01:49:02;;;;;;;;;;;;;;;14.63;100.00;99145.88;5025523;28;20282;-43
2022/09/23 01:51:29;;;;;;;;;;;;;;;14.93;100.00;99150.53;5024613;28;19924;-43
2022/09/23 01:54:01;;;;;;;;;;;;;;;14.76;100.00;99148.75;5047227;28;19924;-43
2022/09/23 01:56:32;;;;;;;;;;;;;;;15.08;100.00;99143.78;5046949;28;20381;-43
2022/09/23 01:59:12;;;;;;;;;;;;;;;14.85;100.00;99137.94;5029314;28;20007;-44
2022/09/23 02:01:39;;;;;;;;;;;;;;;15.27;100.00;99138.53;5047975;28;19967;-44
2022/09/23 02:04:09;;;;;;;;;;;;;;;14.91;100.00;99138.56;5030616;28;20401;-44
2022/09/23 02:06:39;;;;;;;;;;;;;;;14.73;100.00;99138.50;5028928;28;20003;-44
2022/09/23 02:09:06;;;;;;;;;;;;;;;14.83;100.00;99147.53;5030157;28;20364;-43
2022/09/23 02:11:35;;;;;;;;;;;;;;;14.75;100.00;99136.69;5046614;28;19963;-44
2022/09/23 02:14:00;;;;;;;;;;;;;;;14.97;100.00;99146.88;5030671;28;19925;-44
2022/09/23 02:16:29;;;;;;;;;;;;;;;14.97;100.00;99136.50;5046705;28;19928;-44
2022/09/23 02:19:03;;;;;;;;;;;;;;;14.78;100.00;99140.88;5027957;28;19948;-44
2022/09/23 02:21:29;;;;;;;;;;;;;;;14.97;100.00;99140.88;5029483;28;19921;-44
2022/09/23 02:24:15;;;;;;;;;;;;;;;15.10;100.00;99126.41;5047166;28;20148;-45
2022/09/23 02:26:44;;;;;;;;;;;;;;;14.93;100.00;99142.75;5036323;28;20031;-44
2022/09/23 02:29:19;;;;;;;;;;;;;;;14.89;100.00;99143.81;5020928;28;19942;-44
2022/09/23 02:31:55;;;;;;;;;;;;;;;14.96;100.00;99132.25;5045282;28;19979;-44
2022/09/23 02:34:28;;;;;;;;;;;;;;;14.88;100.00;99133.53;5047115;28;19920;-44
2022/09/23 02:37:03;;;;;;;;;;;;;;;14.98;100.00;99138.19;5028083;28;19932;-44
2022/09/23 02:39:32;;;;;;;;;;;;;;;15.26;100.00;99132.50;5029080;28;19921;-44
2022/09/23 02:41:58;;;;;;;;;;;;;;;15.17;100.00;99134.72;5027996;28;20508;-44
2022/09/23 02:44:23;;;;;;;;;;;;;;;14.69;100.00;99129.22;5047212;28;20016;-44
2022/09/23 02:46:51;;;;;;;;;;;;;;;14.93;100.00;99124.59;5046327;28;19921;-44
2022/09/23 02:49:16;;;;;;;;;;;;;;;14.94;100.00;99126.28;5028160;28;20027;-44
2022/09/23 02:51:41;;;;;;;;;;;;;;;14.99;100.00;99119.13;5045060;28;19920;-44
2022/09/23 02:54:09;;;;;;;;;;;;;;;14.81;100.00;99118.25;5028277;28;19947;-43
2022/09/23 02:56:34;;;;;;;;;;;;;;;14.95;100.00;99120.19;5029508;28;20504;-44
2022/09/23 02:59:00;;;;;;;;;;;;;;;14.92;100.00;99114.31;5045558;28;19990;-44
2022/09/23 03:01:34;;;;;;;;;;;;;;;15.13;100.00;99113.28;5028349;28;19967;-44
2022/09/23 03:04:20;;;;;;;;;;;;;;;14.80;100.00;99107.94;5046477;28;20085;-44
2022/09/23 03:06:52;;;;;;;;;;;;;;;14.99;100.00;99103.56;5027188;28;19978;-44
2022/09/23 03:09:23;;;;;;;;;;;;;;;15.06;100.00;99107.53;5024481;28;19917;-45
2022/09/23 03:11:49;;;;;;;;;;;;;;;14.68;100.00;99116.31;5045981;28;19916;-44
2022/09/23 03:14:17;;;;;;;;;;;;;;;15.01;100.00;99099.16;5028868;28;19958;-44
2022/09/23 03:16:55;;;;;;;;;;;;;;;14.99;100.00;99103.56;5028530;28;19920;-44
2022/09/23 03:19:22;;;;;;;;;;;;;;;15.05;100.00;99102.41;5046775;28;19920;-44
2022/09/23 03:21:57;;;;;;;;;;;;;;;14.95;100.00;99091.66;5028781;28;19921;-44
2022/09/23 03:24:22;;;;;;;;;;;;;;;14.94;100.00;99091.72;5045385;28;19923;-44
2022/09/23 03:26:47;;;;;;;;;;;;;;;14.97;100.00;99089.00;5029668;28;19920;-44
2022/09/23 03:29:13;;;;;;;;;;;;;;;14.46;100.00;99101.75;5045655;28;20547;-44
2022/09/23 03:31:41;;;;;;;;;;;;;;;14.96;100.00;99082.97;5026649;28;20408;-44
2022/09/23 03:34:09;;;;;;;;;;;;;;;14.35;100.00;99083.25;5029014;28;20261;-44
2022/09/23 03:37:00;;;;;;;;;;;;;;;15.06;100.00;99081.59;5045133;28;20023;-44
2022/09/23 03:39:28;;;;;;;;;;;;;;;15.00;100.00;99078.47;5036900;28;19921;-44
2022/09/23 03:41:54;;;;;;;;;;;;;;;14.50;100.00;99082.53;5045400;28;20270;-44
2022/09/23 03:44:19;;;;;;;;;;;;;;;14.79;100.00;99080.34;5045850;28;19924;-44
2022/09/23 03:46:48;;;;;;;;;;;;;;;14.72;100.00;99079.81;5027616;28;19928;-45
2022/09/23 03:49:27;;;;;;;;;;;;;;;14.45;100.00;99074.13;5044630;28;19921;-44
2022/09/23 03:51:55;;;;;;;;;;;;;;;14.81;100.00;99074.19;5044139;28;20393;-44
2022/09/23 03:54:21;;;;;;;;;;;;;;;14.38;100.00;99078.75;5028060;28;21171;-44
2022/09/23 03:56:49;;;;;;;;;;;;;;;14.63;100.00;99065.53;5045770;28;19921;-44
2022/09/23 03:59:14;;;;;;;;;;;;;;;14.71;100.00;99054.81;5045862;28;19916;-45
2022/09/23 04:01:44;;;;;;;;;;;;;;;14.51;100.00;99055.72;5043977;28;19920;-44
2022/09/23 04:04:09;;;;;;;;;;;;;;;14.57;100.00;99055.47;5046232;28;20782;-44
2022/09/23 04:06:35;;;;;;;;;;;;;;;14.47;100.00;99054.19;5045450;28;19925;-44
2022/09/23 04:09:03;;;;;;;;;;;;;;;14.58;100.00;99044.19;5045570;28;19963;-44
2022/09/23 04:11:28;;;;;;;;;;;;;;;14.60;100.00;99044.09;5044179;28;19998;-44
2022/09/23 04:13:54;;;;;;;;;;;;;;;14.43;100.00;99042.28;5043876;28;20508;-44
2022/09/23 04:16:19;;;;;;;;;;;;;;;14.62;100.00;99037.94;5044658;28;19925;-45
2022/09/23 04:18:44;;;;;;;;;;;;;;;14.83;100.00;99040.41;5045030;28;19921;-44
2022/09/23 04:21:10;;;;;;;;;;;;;;;14.89;100.00;99034.91;5045154;28;19970;-44
2022/09/23 04:23:35;;;;;;;;;;;;;;;14.70;100.00;99028.94;5043353;28;19955;-44
2022/09/23 04:26:00;;;;;;;;;;;;;;;14.48;100.00;99032.53;5018417;28;20040;-44
2022/09/23 04:28:25;;;;;;;;;;;;;;;14.46;100.00;99031.78;5045800;28;19920;-44
2022/09/23 04:30:50;;;;;;;;;;;;;;;14.51;100.00;99032.41;5044354;28;20011;-44
2022/09/23 04:33:16;;;;;;;;;;;;;;;14.79;100.00;99038.88;5045197;28;20385;-44
2022/09/23 04:35:44;;;;;;;;;;;;;;;14.98;100.00;99033.63;5027119;28;19925;-44
2022/09/23 04:38:10;;;;;;;;;;;;;;;15.01;100.00;99031.72;5043339;28;20009;-44
2022/09/23 04:40:35;;;;;;;;;;;;;;;15.03;100.00;99032.47;5041496;28;20016;-44
2022/09/23 04:43:00;;;;;;;;;;;;;;;14.88;100.00;99035.81;5041108;28;20070;-44
2022/09/23 04:45:26;;;;;;;;;;;;;;;14.71;100.00;99038.38;5043284;28;19924;-44
2022/09/23 04:47:51;;;;;;;;;;;;;;;14.61;100.00;99041.44;5045415;28;19928;-45
2022/09/23 04:50:16;;;;;;;;;;;;;;;14.85;100.00;99031.63;5044140;28;19921;-46
2022/09/23 04:52:41;;;;;;;;;;;;;;;14.69;100.00;99032.44;5044794;28;20405;-44
2022/09/23 04:55:07;;;;;;;;;;;;;;;14.59;100.00;99032.03;4654749;28;20788;-44
2022/09/23 04:57:33;;;;;;;;;;;;;;;14.97;100.00;99027.59;4549239;28;20581;-45
2022/09/23 04:59:58;;;;;;;;;;;;;;;15.09;100.00;99020.94;4761549;28;19924;-45
2022/09/23 05:02:24;;;;;;;;;;;;;;;14.97;100.00;99025.00;5053784;28;19963;-44
2022/09/23 05:04:49;;;;;;;;;;;;;;;14.44;100.00;99028.41;5056291;28;19917;-43
2022/09/23 05:07:17;;;;;;;;;;;;;;;14.63;100.00;99028.41;5069291;28;19920;-44
2022/09/23 05:09:42;;;;;;;;;;;;;;;14.41;100.00;99036.31;5057502;28;19942;-44
2022/09/23 05:12:07;;;;;;;;;;;;;;;14.68;100.00;99038.53;5048245;28;20123;-45
2022/09/23 05:14:32;;;;;;;;;;;;;;;14.41;100.00;99033.72;5048920;28;19956;-44
2022/09/23 05:16:57;;;;;;;;;;;;;;;14.08;100.00;99042.16;5049834;28;19963;-44
2022/09/23 05:19:23;;;;;;;;;;;;;;;14.20;100.00;99031.22;5049887;28;19920;-44
2022/09/23 05:21:48;;;;;;;;;;;;;;;14.54;100.00;99021.91;5046643;28;19935;-43
2022/09/23 05:24:13;;;;;;;;;;;;;;;14.67;100.00;99029.94;5048157;28;19958;-44
2022/09/23 05:26:38;;;;;;;;;;;;;;;14.89;100.00;99015.91;5053884;28;19916;-43
2022/09/23 05:29:04;;;;;;;;;;;;;;;14.31;100.00;99017.78;5046474;28;19940;-43
2022/09/23 05:31:29;;;;;;;;;;;;;;;14.28;100.00;99022.25;5068318;28;20539;-43
2022/09/23 05:33:56;;;;;;;;;;;;;;;14.10;100.00;99027.41;5058908;28;19928;-43
2022/09/23 05:36:21;;;;;;;;;;;;;;;14.47;100.00;99012.72;5047993;28;19925;-44
2022/09/23 05:38:50;;;;;;;;;;;;;;;13.68;100.00;99023.22;5050275;28;19917;-44
2022/09/23 05:41:16;;;;;;;;;;;;;;;14.00;100.00;99021.81;5055707;28;19916;-44
2022/09/23 05:43:41;;;;;;;;;;;;;;;14.40;100.00;99013.94;5056687;28;20465;-44
2022/09/23 05:46:08;;;;;;;;;;;;;;;14.09;100.00;99017.09;5048182;28;19916;-44
2022/09/23 05:48:34;;;;;;;;;;;;;;;14.61;100.00;99010.31;5039523;28;19999;-44
2022/09/23 05:50:59;;;;;;;;;;;;;;;14.53;100.00;99008.97;5065312;28;20004;-44
2022/09/23 05:53:25;;;;;;;;;;;;;;;14.27;100.00;99012.81;5066382;28;19958;-44
2022/09/23 05:55:50;;;;;;;;;;;;;;;14.45;100.00;99011.94;5041465;28;20027;-44
2022/09/23 05:58:15;;;;;;;;;;;;;;;14.32;100.00;99018.63;5050102;28;19944;-44
2022/09/23 06:00:41;;;;;;;;;;;;;;;14.02;100.00;99016.53;5049795;28;19924;-44
2022/09/23 06:03:13;;;;;;;;;;;;;;;13.71;100.00;99023.13;5042470;28;19931;-44
2022/09/23 06:05:38;;;;;;;;;;;;;;;14.44;100.00;99010.28;5061154;28;20078;-44
2022/09/23 06:08:04;;;;;;;;;;;;;;;14.17;100.00;99015.84;5053351;28;20020;-44
2022/09/23 06:10:29;;;;;;;;;;;;;;;14.42;100.00;99017.28;5060880;28;19916;-44
2022/09/23 06:12:55;;;;;;;;;;;;;;;14.77;100.00;99014.78;5068300;28;20281;-44
2022/09/23 06:15:20;;;;;;;;;;;;;;;14.40;100.00;99016.50;5049544;28;19921;-45
2022/09/23 06:17:47;;;;;;;;;;;;;;;14.84;100.00;99018.72;5058013;28;20425;-44
2022/09/23 06:20:13;;;;;;;;;;;;;;;15.09;100.00;99010.56;5069713;28;19970;-45
2022/09/23 06:22:38;;;;;;;;;;;;;;;15.18;100.00;99015.28;5067866;28;20377;-45
2022/09/23 06:25:03;;;;;;;;;;;;;;;14.86;100.00;99014.31;5075648;28;20281;-43
2022/09/23 06:27:28;;;;;;;;;;;;;;;15.35;100.00;99006.66;5060071;28;19930;-43
2022/09/23 06:29:54;;;;;;;;;;;;;;;15.16;100.00;99016.28;5069140;28;19916;-45
2022/09/23 06:32:19;;;;;;;;;;;;;;;15.46;100.00;99006.97;5063689;28;19917;-44
2022/09/23 06:34:44;;;;;;;;;;;;;;;15.55;100.00;99007.38;5066548;28;19927;-45
2022/09/23 06:37:10;;;;;;;;;;;;;;;15.54;100.00;99013.50;5052006;28;19925;-45
2022/09/23 06:39:35;;;;;;;;;;;;;;;15.68;100.00;99011.00;5051562;28;19944;-45
2022/09/23 06:42:00;;;;;;;;;;;;;;;15.77;100.00;98994.16;5068585;28;20513;-45
2022/09/23 06:44:27;;;;;;;;;;;;;;;16.23;100.00;98994.22;5057850;28;20655;-45
2022/09/23 06:46:52;;;;;;;;;;;;;;;16.17;100.00;98994.56;5063828;28;19951;-45
2022/09/23 06:49:19;;;;;;;;;;;;;;;15.82;100.00;98994.72;5058387;28;19990;-45
2022/09/23 06:51:44;;;;;;;;;;;;;;;15.75;100.00;99004.59;5054026;28;19939;-45
2022/09/23 06:54:09;;;;;;;;;;;;;;;16.47;100.00;98992.03;5078790;28;19924;-45
2022/09/23 06:56:35;;;;;;;;;;;;;;;16.25;100.00;98997.59;5062946;28;20059;-45
2022/09/23 06:59:00;;;;;;;;;;;;;;;15.62;100.00;99008.72;5058012;28;20388;-45
2022/09/23 07:01:25;;;;;;;;;;;;;;;15.92;100.00;99005.44;5080850;28;20365;-45
2022/09/23 07:03:50;;;;;;;;;;;;;;;15.97;100.00;99003.47;5048475;28;20282;-45
2022/09/23 07:06:16;;;;;;;;;;;;;;;16.19;100.00;98996.16;5052982;28;20309;-44
2022/09/23 07:08:42;;;;;;;;;;;;;;;16.45;100.00;98993.88;5053391;28;19916;-45
2022/09/23 07:11:12;;;;;;;;;;;;;;;16.08;100.00;99006.31;5053252;28;20370;-45
2022/09/23 07:13:38;;;;;;;;;;;;;;;16.47;100.00;98998.06;5034801;28;19912;-45
2022/09/23 07:16:04;;;;;;;;;;;;;;;16.61;100.00;99010.28;5068051;28;19927;-45
2022/09/23 07:18:30;;;;;;;;;;;;;;;17.06;100.00;98995.59;5049961;28;19920;-45
2022/09/23 07:20:57;;;;;;;;;;;;;;;16.72;100.00;98997.53;5056283;28;19921;-45
2022/09/23 07:23:23;;;;;;;;;;;;;;;16.45;100.00;99007.72;5052699;28;19932;-45
2022/09/23 07:25:50;;;;;;;;;;;;;;;16.71;100.00;98998.44;5068916;28;20370;-45
2022/09/23 07:28:19;;;;;;;;;;;;;;;16.52;100.00;99006.44;5066413;28;20007;-45
2022/09/23 07:30:44;;;;;;;;;;;;;;;16.69;100.00;99005.50;5055507;28;19916;-45
2022/09/23 07:33:09;;;;;;;;;;;;;;;16.90;100.00;99005.19;5079737;28;19916;-46
2022/09/23 07:35:37;;;;;;;;;;;;;;;16.92;100.00;99003.34;5068471;28;19929;-45
2022/09/23 07:38:02;;;;;;;;;;;;;;;16.77;100.00;98999.03;5071289;28;20274;-45
2022/09/23 07:40:27;;;;;;;;;;;;;;;16.94;100.00;99017.09;5060761;28;19935;-46
2022/09/23 07:42:54;;;;;;;;;;;;;;;18.10;100.00;98998.84;5071011;28;19926;-46
2022/09/23 07:45:21;;;;;;;;;;;;;;;17.97;100.00;98996.19;5067830;28;19925;-45
2022/09/23 07:47:46;;;;;;;;;;;;;;;17.84;100.00;99005.69;5049884;28;20370;-45
2022/09/23 07:50:11;;;;;;;;;;;;;;;17.98;100.00;98999.63;5072896;28;19919;-46
2022/09/23 07:52:37;;;;;;;;;;;;;;;17.96;100.00;99002.31;5050249;28;19912;-46
2022/09/23 07:55:03;;;;;;;;;;;;;;;18.34;100.00;98995.63;5054470;28;19927;-45
2022/09/23 07:57:28;;;;;;;;;;;;;;;18.68;98.37;98994.28;5066450;28;20033;-46
2022/09/23 07:59:53;;;;;;;;;;;;;;;18.73;99.65;98992.19;5072373;28;20769;-46
2022/09/23 08:02:18;;;;;;;;;;;;;;;18.58;100.00;98998.41;5057718;28;20340;-45
2022/09/23 08:04:45;;;;;;;;;;;;;;;19.19;99.45;98998.78;5065882;28;20392;-45
2022/09/23 08:07:10;;;;;;;;;;;;;;;18.93;98.60;98997.91;5071554;28;19919;-45
2022/09/23 08:09:40;;;;;;;;;;;;;;;19.01;98.82;99000.84;5061356;28;19920;-45
2022/09/23 08:12:09;;;;;;;;;;;;;;;18.99;98.48;99007.94;5073045;28;19920;-45
2022/09/23 08:14:34;;;;;;;;;;;;;;;18.99;99.52;99000.09;5051375;28;19917;-45
2022/09/23 08:17:00;;;;;;;;;;;;;;;19.43;97.04;98994.50;5063320;28;20472;-45
2022/09/23 08:19:25;;;;;;;;;;;;;;;19.73;97.35;98990.75;5055865;28;20385;-46
2022/09/23 08:21:51;;;;;;;;;;;;;;;19.13;98.51;98994.78;5050833;28;20231;-45
2022/09/23 08:24:17;;;;;;;;;;;;;;;19.68;96.47;98989.34;5058991;28;19962;-46
2022/09/23 08:26:43;;;;;;;;;;;;;;;19.64;96.69;98996.56;5071244;28;20348;-46
2022/09/23 08:29:10;;;;;;;;;;;;;;;19.45;96.92;98989.16;5063304;28;19913;-45
2022/09/23 08:31:36;;;;;;;;;;;;;;;19.35;96.95;98988.94;5050792;28;19928;-45
2022/09/23 08:34:01;;;;;;;;;;;;;;;19.85;97.20;98981.19;5041827;28;19912;-46
2022/09/23 08:36:26;;;;;;;;;;;;;;;20.48;94.00;98980.13;5032968;28;19929;-45
2022/09/23 08:38:51;;;;;;;;;;;;;;;20.93;91.87;98974.22;5051089;28;19913;-46
2022/09/23 08:41:26;;;;;;;;;;;;;;;20.76;92.36;98980.72;5053150;28;19917;-46
2022/09/23 08:43:52;;;;;;;;;;;;;;;21.44;89.79;98973.00;5067248;28;19924;-46
2022/09/23 08:46:20;;;;;;;;;;;;;;;21.13;90.08;98980.59;5070087;28;19912;-46
2022/09/23 08:48:45;;;;;;;;;;;;;;;21.14;88.11;98974.38;5050311;28;19962;-45
2022/09/23 08:51:14;;;;;;;;;;;;;;;21.66;88.80;98980.88;5061102;28;19913;-46
2022/09/23 08:53:41;;;;;;;;;;;;;;;21.98;87.93;98976.69;5050213;28;19917;-46
2022/09/23 08:56:16;;;;;;;;;;;;;;;22.00;85.54;98978.22;5040056;28;20113;-46
2022/09/23 08:59:00;;;;;;;;;;;;;;;21.95;86.61;98977.75;5045361;28;20439;-46
2022/09/23 09:01:32;;;;;;;;;;;;;;;21.85;86.06;98982.03;5070610;28;20126;-46
2022/09/23 09:03:58;;;;;;;;;;;;;;;21.49;87.38;98986.63;5027663;28;20301;-45
2022/09/23 09:06:26;;;;;;;;;;;;;;;21.53;86.47;98982.81;5051873;28;19917;-46
2022/09/23 09:08:53;;;;;;;;;;;;;;;21.94;86.47;98983.97;5065670;28;19951;-46
2022/09/23 09:11:18;;;;;;;;;;;;;;;22.31;84.87;98975.81;5030176;28;19963;-46
2022/09/23 09:13:47;;;;;;;;;;;;;;;22.67;84.19;98973.72;5062368;28;19948;-46
2022/09/23 09:16:22;;;;;;;;;;;;;;;22.42;85.64;98975.75;5032917;28;20024;-47
2022/09/23 09:18:51;;;;;;;;;;;;;;;22.54;85.22;98974.75;5053583;28;20133;-46
2022/09/23 09:21:16;;;;;;;;;;;;;;;22.25;83.54;98973.66;5050133;28;20007;-49
2022/09/23 09:23:47;;;;;;;;;;;;;;;22.47;82.90;98970.97;5050135;28;20050;-49
2022/09/23 09:26:18;;;;;;;;;;;;;;;22.88;82.21;98969.34;5050654;28;19921;-48
2022/09/23 09:28:53;;;;;;;;;;;;;;;22.97;82.25;98976.44;5033140;28;19987;-46
2022/09/23 09:31:33;;;;;;;;;;;;;;;22.88;82.92;98977.22;5050939;28;20509;-46
2022/09/23 09:34:19;;;;;;;;;;;;;;;22.91;81.63;98971.69;5048039;28;19916;-46
2022/09/23 09:36:47;;;;;;;;;;;;;;;22.89;81.26;98967.53;5040653;28;19920;-46
2022/09/23 09:39:12;;;;;;;;;;;;;;;22.65;82.19;98976.50;5061911;28;19912;-46
2022/09/23 09:41:39;;;;;;;;;;;;;;;23.27;81.04;98969.59;5056898;28;19917;-46
2022/09/23 09:44:06;;;;;;;;;;;;;;;23.26;80.41;98960.03;5037009;28;19974;-46
2022/09/23 09:46:37;;;;;;;;;;;;;;;23.75;80.13;98961.09;5039899;28;19921;-47
2022/09/23 09:49:23;;;;;;;;;;;;;;;22.94;77.86;98955.69;5048078;28;19927;-47
2022/09/23 09:52:18;;;;;;;;;;;;;;;22.67;79.58;98956.22;5036966;28;19920;-49
2022/09/23 09:54:43;;;;;;;;;;;;;;;23.26;79.69;98954.78;5038013;28;19920;-46
2022/09/23 09:57:14;;;;;;;;;;;;;;;23.61;79.58;98948.28;5071836;28;19923;-46
2022/09/23 09:59:41;;;;;;;;;;;;;;;23.85;78.20;98939.25;5032864;28;20571;-46
2022/09/23 10:02:20;;;;;;;;;;;;;;;24.11;77.50;98943.03;5073012;28;19970;-45
2022/09/23 10:04:45;;;;;;;;;;;;;;;24.48;75.61;98931.03;5039031;28;20352;-46
2022/09/23 10:07:11;;;;;;;;;;;;;;;24.33;76.68;98935.84;5049527;28;19924;-46
2022/09/23 10:09:37;;;;;;;;;;;;;;;23.82;76.79;98929.00;5073557;28;19916;-46
2022/09/23 10:12:02;;;;;;;;;;;;;;;23.28;76.75;98937.09;5055124;28;19921;-46
2022/09/23 10:14:29;;;;;;;;;;;;;;;24.29;77.65;98934.44;5051127;28;19921;-46
2022/09/23 10:17:01;;;;;;;;;;;;;;;23.76;77.02;98936.44;5071499;28;19921;-47
2022/09/23 10:19:26;;;;;;;;;;;;;;;24.53;76.04;98934.91;5065139;28;19923;-48
2022/09/23 10:21:55;;;;;;;;;;;;;;;24.42;75.28;98935.00;5072232;28;19916;-46
2022/09/23 10:24:21;;;;;;;;;;;;;;;24.72;73.58;98928.78;5055758;28;19962;-47
2022/09/23 10:26:51;;;;;;;;;;;;;;;24.45;74.29;98926.84;5072882;28;20577;-48
2022/09/23 10:29:22;;;;;;;;;;;;;;;23.97;74.95;98935.53;5055794;28;19920;-47
2022/09/23 10:31:47;;;;;;;;;;;;;;;24.38;72.82;98936.25;5043066;28;19926;-47
2022/09/23 10:34:23;;;;;;;;;;;;;;;24.32;72.43;98931.56;5071753;28;19987;-46
2022/09/23 10:37:01;;;;;;;;;;;;;;;24.83;72.56;98933.06;5053883;28;19924;-47
2022/09/23 10:47:50;;;;;;;;;;;;;;;23.84;70.60;98917.38;5040426;28;20316;-47
2022/09/23 10:50:18;;;;;;;;;;;;;;;24.53;70.02;98913.00;5044112;28;19916;-47
2022/09/23 10:52:45;;;;;;;;;;;;;;;24.10;71.86;98922.94;5058632;28;19928;-46
2022/09/23 10:55:13;;;;;;;;;;;;;;;24.11;67.80;98913.28;5065514;28;19913;-47
2022/09/23 10:57:45;;;;;;;;;;;;;;;24.25;65.76;98909.41;5061632;28;19917;-47
2022/09/23 11:00:28;;;;;;;;;;;;;;;24.67;65.53;98906.47;5052619;28;20007;-47
2022/09/23 11:02:56;;;;;;;;;;;;;;;25.12;67.39;98909.28;5051349;28;20323;-47
2022/09/23 11:05:28;;;;;;;;;;;;;;;24.07;67.67;98912.72;5052129;28;19995;-47
2022/09/23 11:07:53;;;;;;;;;;;;;;;25.11;68.18;98909.41;5052872;28;19913;-48
2022/09/23 11:10:24;;;;;;;;;;;;;;;25.12;66.84;98908.44;5052804;28;19920;-46
2022/09/23 11:12:53;;;;;;;;;;;;;;;25.10;65.07;98905.13;5059314;28;20255;-49
2022/09/23 11:15:24;;;;;;;;;;;;;;;23.92;65.78;98898.28;5071776;28;19917;-47
2022/09/23 11:17:49;;;;;;;;;;;;;;;24.76;62.91;98893.28;5072838;28;20305;-47
2022/09/23 11:20:26;;;;;;;;;;;;;;;24.77;65.09;98902.00;5072369;28;19920;-48
2022/09/23 11:23:06;;;;;;;;;;;;;;;24.87;65.19;98902.84;5054339;28;19916;-47
2022/09/23 11:25:37;;;;;;;;;;;;;;;24.30;66.39;98894.84;5053990;28;19912;-47
2022/09/23 11:28:22;;;;;;;;;;;;;;;25.05;67.32;98893.19;5054340;28;19923;-47
2022/09/23 11:30:47;;;;;;;;;;;;;;;23.76;68.19;98894.38;5072504;28;19913;-48
2022/09/23 11:33:22;;;;;;;;;;;;;;;24.53;68.29;98899.84;5071732;28;19919;-47
2022/09/23 11:35:48;;;;;;;;;;;;;;;25.35;68.51;98893.13;5054087;28;20053;-48
2022/09/23 11:38:24;;;;;;;;;;;;;;;25.31;62.53;98886.47;5054453;28;20554;-48
2022/09/23 11:40:53;;;;;;;;;;;;;;;25.98;64.45;98887.91;5049696;28;20440;-47
2022/09/23 11:43:27;;;;;;;;;;;;;;;25.46;66.04;98896.38;5039129;28;19925;-46
2022/09/23 11:46:03;;;;;;;;;;;;;;;25.88;62.70;98880.06;5042811;28;19947;-49
2022/09/23 11:48:47;;;;;;;;;;;;;;;26.41;65.36;98888.09;5034654;28;19920;-47
2022/09/23 11:51:16;;;;;;;;;;;;;;;25.73;61.79;98873.63;5037571;28;19917;-47
2022/09/23 11:53:41;;;;;;;;;;;;;;;26.29;64.45;98876.97;5063902;28;19978;-48
2022/09/23 11:56:09;;;;;;;;;;;;;;;27.11;65.31;98888.09;5061568;28;19924;-47
2022/09/23 11:58:37;;;;;;;;;;;;;;;27.10;56.61;98863.47;5046900;28;20399;-47
2022/09/23 12:01:12;;;;;;;;;;;;;;;26.79;59.70;98868.44;5028483;28;20409;-47
2022/09/23 12:03:48;;;;;;;;;;;;;;;26.66;59.25;98863.59;5050935;28;19963;-47
2022/09/23 12:06:14;;;;;;;;;;;;;;;27.11;64.81;98875.69;5037810;28;19966;-49
2022/09/23 12:08:39;;;;;;;;;;;;;;;27.35;61.57;98860.13;5043407;28;19917;-47
2022/09/23 12:11:11;;;;;;;;;;;;;;;27.31;60.53;98857.00;5061524;28;19921;-47
2022/09/23 12:13:51;;;;;;;;;;;;;;;26.42;59.01;98856.28;5050550;28;20445;-47
2022/09/23 12:16:28;;;;;;;;;;;;;;;27.26;53.21;98840.78;5044008;28;19993;-49
2022/09/23 12:19:05;;;;;;;;;;;;;;;27.11;54.39;98854.56;5056972;28;19912;-46
2022/09/23 12:21:44;;;;;;;;;;;;;;;26.89;51.32;98841.88;5033275;28;19966;-47
2022/09/23 12:24:15;;;;;;;;;;;;;;;27.18;52.68;98852.09;5039233;28;19927;-47
2022/09/23 12:26:41;;;;;;;;;;;;;;;27.71;56.30;98848.34;5070181;28;19912;-47
2022/09/23 12:29:09;;;;;;;;;;;;;;;27.42;54.50;98838.19;5045241;28;19924;-47
2022/09/23 12:31:35;;;;;;;;;;;;;;;26.65;57.48;98851.34;5039885;28;19923;-47
2022/09/23 12:34:00;;;;;;;;;;;;;;;28.15;57.40;98845.44;5051737;28;19990;-47
2022/09/23 12:36:33;;;;;;;;;;;;;;;27.97;59.06;98847.41;5051365;28;19987;-46
2022/09/23 12:39:01;;;;;;;;;;;;;;;28.25;57.17;98834.66;5052617;28;19916;-47
2022/09/23 12:41:36;;;;;;;;;;;;;;;27.95;51.73;98834.34;5051987;28;19917;-46
2022/09/23 12:44:11;;;;;;;;;;;;;;;28.55;58.41;98840.28;5060871;28;20385;-49
2022/09/23 12:46:37;;;;;;;;;;;;;;;28.58;55.68;98837.31;5057213;28;19917;-47
2022/09/23 12:49:03;;;;;;;;;;;;;;;27.73;53.20;98829.63;5031996;28;19917;-47
2022/09/23 12:51:29;;;;;;;;;;;;;;;28.24;54.10;98829.56;5058873;28;19924;-48
2022/09/23 12:53:55;;;;;;;;;;;;;;;28.82;54.96;98835.59;5065353;28;19920;-48